Time;durP1;ratioP1;P1;durP2;ratioP2;P2;SDS_P1;SDS_P2;PMS_P1;PMS_P2;Temp;Humidity;BMP_temperature;BMP_pressure;BME280_temperature;BME280_humidity;BME280_pressure;Samples;Min_cycle;Max_cycle;Signal;HPM_P1;HPM_P2
2023/03/08 00:00:24;;;;;;;3.47;3.20;;;;;;;17.42;41.94;95796.94;4994740;28;20189;-89
2023/03/08 00:02:52;;;;;;;3.53;3.23;;;;;;;18.03;41.94;95912.41;4986114;28;20250;-90
2023/03/08 00:05:19;;;;;;;3.50;3.20;;;;;;;17.91;41.93;95901.16;4988237;28;20223;-89
2023/03/08 00:07:45;;;;;;;3.43;3.13;;;;;;;17.72;42.40;95891.50;4977091;28;20234;-90
2023/03/08 00:10:13;;;;;;;3.60;3.30;;;;;;;17.77;41.75;95879.75;5003941;28;20206;-89
2023/03/08 00:12:39;;;;;;;3.30;3.00;;;;;;;18.56;41.74;96001.50;4985161;28;20211;-89
2023/03/08 00:15:06;;;;;;;4.23;3.37;;;;;;;19.04;41.80;96083.75;5000797;28;20211;-89
2023/03/08 00:17:35;;;;;;;3.40;3.10;;;;;;;18.09;41.63;95957.44;4993329;28;20219;-89
2023/03/08 00:20:04;;;;;;;3.73;3.37;;;;;;;17.69;41.86;95853.34;4984668;28;20265;-89
2023/03/08 00:22:35;;;;;;;3.43;3.13;;;;;;;17.52;41.69;95832.72;5000061;28;20231;-89
2023/03/08 00:25:05;;;;;;;3.70;3.40;;;;;;;18.01;41.82;95915.75;4988409;28;20212;-90
2023/03/08 00:27:32;;;;;;;3.07;2.87;;;;;;;18.56;41.89;95986.25;4993759;28;20192;-89
2023/03/08 00:29:58;;;;;;;3.40;3.10;;;;;;;18.57;41.85;95995.56;4994128;28;20210;-90
2023/03/08 00:32:25;;;;;;;3.50;3.20;;;;;;;18.78;41.91;96023.91;4996946;28;20308;-89
2023/03/08 00:34:52;;;;;;;3.60;3.30;;;;;;;18.56;41.88;95994.69;4982103;28;20210;-90
2023/03/08 00:37:19;;;;;;;3.17;2.93;;;;;;;17.76;41.60;95853.47;4994280;28;20246;-90
2023/03/08 00:39:52;;;;;;;3.73;3.30;;;;;;;17.62;41.82;95828.69;5002538;28;20187;-89
2023/03/08 00:42:22;;;;;;;3.77;3.10;;;;;;;18.55;41.74;95992.13;4980996;28;20205;-90
2023/03/08 00:44:49;;;;;;;3.10;2.80;;;;;;;17.56;41.64;95849.72;4979351;28;20210;-89
2023/03/08 00:47:15;;;;;;;3.57;3.27;;;;;;;17.98;41.98;95934.34;4987618;28;20222;-90
2023/03/08 00:49:42;;;;;;;4.43;3.50;;;;;;;18.54;41.77;96011.66;5004478;28;20259;-89
2023/03/08 00:52:09;;;;;;;4.03;3.60;;;;;;;16.71;41.67;95700.88;4982542;28;20438;-90
2023/03/08 00:54:36;;;;;;;3.50;3.20;;;;;;;18.55;41.86;96012.50;4989904;28;20215;-89
2023/03/08 00:57:03;;;;;;;3.47;3.17;;;;;;;17.20;41.77;95782.19;5000310;28;20184;-89
2023/03/08 00:59:29;;;;;;;3.43;3.13;;;;;;;18.02;41.70;95923.41;5003773;28;20243;-89
2023/03/08 01:01:56;;;;;;;3.00;2.80;;;;;;;18.22;41.83;95961.88;4977670;28;20276;-90
2023/03/08 01:04:22;;;;;;;3.40;3.10;;;;;;;18.54;41.38;96001.47;5004944;28;20180;-89
2023/03/08 01:06:49;;;;;;;3.13;2.83;;;;;;;18.67;41.83;96020.31;5001776;28;20187;-90
2023/03/08 01:09:16;;;;;;;3.43;3.13;;;;;;;17.82;41.59;95885.75;4992014;28;20192;-89
2023/03/08 01:11:43;;;;;;;3.23;2.90;;;;;;;18.95;42.16;96083.59;4976523;28;20207;-90
2023/03/08 01:14:09;;;;;;;3.27;2.97;;;;;;;18.53;42.09;95997.19;4999819;28;20184;-89
2023/03/08 01:16:36;;;;;;;3.30;3.00;;;;;;;19.03;41.70;96090.50;4986524;28;20223;-90
2023/03/08 01:19:03;;;;;;;3.27;2.97;;;;;;;17.86;41.78;95879.91;4996662;28;20225;-90
2023/03/08 01:21:29;;;;;;;3.93;3.57;;;;;;;18.11;41.71;95913.41;4997984;28;20219;-89
2023/03/08 01:23:56;;;;;;;3.33;3.03;;;;;;;18.11;41.87;95921.03;5000977;28;20203;-91
2023/03/08 01:26:24;;;;;;;3.57;3.27;;;;;;;17.89;41.62;95878.25;5003979;28;20207;-90
2023/03/08 01:28:51;;;;;;;3.23;2.93;;;;;;;17.97;41.70;95912.28;5000012;28;20259;-91
2023/03/08 01:31:19;;;;;;;3.40;3.10;;;;;;;18.04;41.69;95918.34;4996938;28;20227;-90
2023/03/08 01:33:46;;;;;;;3.00;2.70;;;;;;;17.71;41.42;95839.00;4977831;28;20208;-91
2023/03/08 01:36:14;;;;;;;3.03;2.80;;;;;;;17.43;41.68;95799.56;4994495;28;20211;-91
2023/03/08 01:38:40;;;;;;;3.47;3.10;;;;;;;17.44;41.69;95796.16;4971618;28;20239;-90
2023/03/08 01:41:10;;;;;;;3.80;2.83;;;;;;;18.51;41.85;95978.53;4994013;28;20185;-91
2023/03/08 01:43:37;;;;;;;3.10;2.80;;;;;;;17.57;41.73;95830.28;4974366;28;20240;-90
2023/03/08 01:46:25;;;;;;;2.80;2.60;;;;;;;18.53;41.78;95981.94;5001000;28;20210;-90
2023/03/08 01:48:55;;;;;;;3.17;2.87;;;;;;;18.45;41.88;95964.84;4990413;28;20207;-91
2023/03/08 01:51:56;;;;;;;3.40;3.10;;;;;;;19.04;41.58;96059.13;4996498;28;20242;-91
2023/03/08 01:54:28;;;;;;;3.40;3.10;;;;;;;17.65;41.57;95816.88;4993471;28;20218;-91
2023/03/08 01:56:58;;;;;;;3.00;2.80;;;;;;;18.79;41.57;96018.84;4988751;28;20195;-91
2023/03/08 01:59:25;;;;;;;3.30;3.00;;;;;;;17.57;41.25;95800.66;4974524;28;20243;-91
2023/03/08 02:01:52;;;;;;;3.20;2.90;;;;;;;18.05;41.56;95887.00;4998292;28;20219;-90
2023/03/08 02:04:18;;;;;;;3.40;3.10;;;;;;;17.59;41.51;95804.06;4996473;28;20188;-90
2023/03/08 02:06:45;;;;;;;3.17;2.87;;;;;;;17.37;41.67;95755.38;4996530;28;20206;-91
2023/03/08 02:09:11;;;;;;;3.00;2.80;;;;;;;18.07;41.27;95883.69;4996739;28;20195;-90
2023/03/08 02:11:38;;;;;;;3.27;2.97;;;;;;;18.03;41.41;95871.72;4993865;28;20224;-90
2023/03/08 02:14:05;;;;;;;3.13;2.90;;;;;;;18.53;41.58;95956.50;4997426;28;20204;-90
2023/03/08 02:16:31;;;;;;;3.30;3.00;;;;;;;18.31;41.47;95928.97;4996317;28;20290;-91
2023/03/08 02:19:00;;;;;;;4.60;3.07;;;;;;;17.96;41.63;95856.34;4998231;28;20215;-90
2023/03/08 02:21:27;;;;;;;3.30;2.97;;;;;;;18.53;41.67;95948.88;4962264;28;20199;-90
2023/03/08 02:23:54;;;;;;;3.30;3.00;;;;;;;18.06;41.74;95869.25;4993654;28;20211;-91
2023/03/08 02:26:20;;;;;;;3.13;2.83;;;;;;;18.02;41.63;95848.84;4967169;28;20199;-91
2023/03/08 02:28:47;;;;;;;3.27;2.97;;;;;;;17.20;41.60;95737.31;4990613;28;20195;-91
2023/03/08 02:31:14;;;;;;;3.50;3.20;;;;;;;17.61;41.84;95783.75;4996417;28;20181;-91
2023/03/08 02:33:40;;;;;;;3.33;2.90;;;;;;;17.59;41.72;95780.38;4991478;28;20226;-90
2023/03/08 02:36:08;;;;;;;3.40;3.10;;;;;;;17.95;41.50;95827.53;4996210;28;20188;-91
2023/03/08 02:38:35;;;;;;;3.20;2.90;;;;;;;18.05;41.78;95847.22;4986897;28;20220;-90
2023/03/08 02:41:01;;;;;;;3.17;2.87;;;;;;;17.64;41.84;95781.28;4999077;28;20199;-91
2023/03/08 02:43:28;;;;;;;3.30;3.00;;;;;;;17.22;41.65;95697.59;4986192;28;20192;-91
2023/03/08 02:45:55;;;;;;;3.43;3.13;;;;;;;17.56;41.19;95755.75;4991660;28;20179;-91
2023/03/08 02:48:21;;;;;;;3.57;3.10;;;;;;;18.80;41.52;95964.56;4986661;28;20198;-90
2023/03/08 02:50:48;;;;;;;3.20;2.90;;;;;;;17.52;41.33;95736.22;4966613;28;20203;-91
2023/03/08 02:53:16;;;;;;;3.50;3.20;;;;;;;17.68;41.22;95770.34;4997096;28;20211;-90
2023/03/08 02:55:42;;;;;;;3.57;3.27;;;;;;;18.08;41.42;95824.38;4996590;28;20195;-91
2023/03/08 02:58:09;;;;;;;3.27;2.97;;;;;;;18.04;41.23;95824.31;4992567;28;20385;-91
2023/03/08 03:00:36;;;;;;;3.50;3.20;;;;;;;17.61;41.39;95745.66;4994757;28;20248;-91
2023/03/08 03:03:03;;;;;;;3.50;3.20;;;;;;;17.36;41.33;95706.31;4967062;28;20282;-91
2023/03/08 03:05:29;;;;;;;3.50;3.20;;;;;;;18.00;41.33;95836.09;4995824;28;20255;-91
2023/03/08 03:07:57;;;;;;;3.50;3.20;;;;;;;17.82;40.87;95795.16;4990354;28;20274;-90
2023/03/08 03:10:24;;;;;;;3.17;2.87;;;;;;;17.72;41.23;95767.03;5001962;28;20251;-92
2023/03/08 03:12:50;;;;;;;3.30;3.00;;;;;;;18.81;41.34;95951.03;4972312;28;20207;-91
2023/03/08 03:15:17;;;;;;;3.50;3.20;;;;;;;17.74;41.00;95760.28;4994583;28;20188;-90
2023/03/08 03:17:44;;;;;;;3.40;3.10;;;;;;;17.81;40.96;95767.19;4987111;28;20219;-90
2023/03/08 03:20:11;;;;;;;3.53;3.23;;;;;;;17.51;41.24;95724.38;4987530;28;20180;-91
2023/03/08 03:22:37;;;;;;;3.50;3.20;;;;;;;18.22;41.02;95839.84;5009941;28;20208;-90
2023/03/08 03:25:04;;;;;;;3.30;2.93;;;;;;;17.81;41.28;95780.75;4997164;28;20215;-92
2023/03/08 03:27:31;;;;;;;3.20;2.60;;;;;;;18.63;41.05;95906.63;4987609;28;20192;-91
2023/03/08 03:29:58;;;;;;;2.90;2.70;;;;;;;17.61;40.89;95735.50;5007590;28;20199;-91
2023/03/08 03:32:24;;;;;;;3.33;3.03;;;;;;;17.36;41.10;95693.63;4993646;28;20223;-92
2023/03/08 03:34:51;;;;;;;3.10;2.80;;;;;;;18.25;40.99;95829.72;4989765;28;20234;-91
2023/03/08 03:37:18;;;;;;;3.13;2.87;;;;;;;18.02;40.90;95792.91;4996287;28;20259;-91
2023/03/08 03:39:44;;;;;;;3.93;3.17;;;;;;;17.76;40.87;95756.94;4994110;28;20254;-90
2023/03/08 03:42:11;;;;;;;4.07;3.43;;;;;;;17.73;41.58;95743.31;4998561;28;20218;-90
2023/03/08 03:44:37;;;;;;;3.77;2.90;;;;;;;17.93;40.95;95808.88;4985602;28;20207;-90
2023/03/08 03:47:04;;;;;;;3.57;3.27;;;;;;;17.75;40.87;95752.69;4983296;28;20193;-91
2023/03/08 03:49:31;;;;;;;3.40;3.10;;;;;;;18.73;40.97;95921.19;4987057;28;20184;-91
2023/03/08 03:51:57;;;;;;;3.40;3.10;;;;;;;18.31;40.94;95856.91;4975435;28;20424;-91
2023/03/08 03:54:24;;;;;;;3.40;3.10;;;;;;;18.67;40.85;95921.09;5001913;28;20207;-91
2023/03/08 03:56:51;;;;;;;3.57;3.27;;;;;;;18.47;40.89;95886.91;5002916;28;20207;-91
2023/03/08 03:59:18;;;;;;;3.03;2.73;;;;;;;18.76;41.00;95922.09;4996134;28;20227;-91
2023/03/08 04:01:44;;;;;;;3.40;3.10;;;;;;;18.22;40.84;95832.22;5000925;28;20244;-91
2023/03/08 04:04:11;;;;;;;3.07;2.80;;;;;;;17.77;40.66;95751.03;4990565;28;20211;-90
2023/03/08 04:06:37;;;;;;;3.47;3.17;;;;;;;17.54;40.56;95729.50;4991063;28;20196;-91
2023/03/08 04:09:06;;;;;;;3.40;3.10;;;;;;;18.59;40.70;95877.72;4997598;28;20191;-90
2023/03/08 04:11:35;;;;;;;3.27;2.97;;;;;;;18.76;40.86;95904.28;4991327;28;20195;-91
2023/03/08 04:14:01;;;;;;;3.33;3.00;;;;;;;18.27;40.76;95825.53;4995139;28;20204;-90
2023/03/08 04:16:29;;;;;;;3.60;3.27;;;;;;;17.55;40.88;95689.69;4997052;28;20188;-90
2023/03/08 04:18:58;;;;;;;3.37;2.90;;;;;;;17.87;40.99;95778.31;4993311;28;20343;-91
2023/03/08 04:21:24;;;;;;;3.07;2.77;;;;;;;17.97;41.03;95782.69;4994656;28;20192;-90
2023/03/08 04:23:52;;;;;;;3.23;2.93;;;;;;;17.88;41.08;95766.44;4977953;28;20202;-90
2023/03/08 04:26:19;;;;;;;3.03;2.83;;;;;;;17.77;40.88;95733.22;4993699;28;20252;-90
2023/03/08 04:28:45;;;;;;;3.50;3.20;;;;;;;18.00;40.85;95780.19;4997809;28;20279;-91
2023/03/08 04:31:12;;;;;;;3.23;2.93;;;;;;;19.28;40.83;95979.75;4998035;28;20203;-90
2023/03/08 04:33:38;;;;;;;3.50;3.20;;;;;;;17.78;40.97;95724.81;4993984;28;20218;-91
2023/03/08 04:36:05;;;;;;;3.77;2.83;;;;;;;18.54;40.96;95856.47;4998256;28;20227;-91
2023/03/08 04:38:32;;;;;;;3.60;3.30;;;;;;;18.46;41.01;95836.84;4997492;28;20246;-90
2023/03/08 04:41:09;;;;;;;3.40;3.10;;;;;;;17.89;40.91;95751.22;4997770;28;20223;-91
2023/03/08 04:43:35;;;;;;;4.00;3.60;;;;;;;18.35;40.81;95815.47;4998395;28;20199;-91
2023/03/08 04:46:03;;;;;;;3.83;3.37;;;;;;;18.07;41.09;95768.44;4991279;28;20207;-91
2023/03/08 04:48:29;;;;;;;3.37;3.07;;;;;;;19.29;40.93;95977.22;4957416;28;20251;-91
2023/03/08 04:50:57;;;;;;;3.80;3.47;;;;;;;17.66;40.70;95696.69;4989288;28;20196;-90
2023/03/08 04:53:24;;;;;;;3.57;3.27;;;;;;;18.34;40.90;95799.34;4995992;28;20269;-91
2023/03/08 04:55:52;;;;;;;3.63;3.33;;;;;;;18.15;40.85;95788.03;4979278;28;20203;-92
2023/03/08 04:58:18;;;;;;;3.17;2.83;;;;;;;17.80;40.79;95724.81;4988837;28;20223;-91
2023/03/08 05:00:45;;;;;;;3.40;3.10;;;;;;;17.47;40.99;95631.19;4981330;28;20243;-90
2023/03/08 05:03:12;;;;;;;4.07;3.67;;;;;;;17.97;40.57;95711.53;5006081;28;20231;-91
2023/03/08 05:05:53;;;;;;;4.97;3.47;;;;;;;18.13;40.52;95771.06;4998826;28;20294;-91
2023/03/08 05:08:20;;;;;;;3.40;3.10;;;;;;;18.39;40.70;95779.09;4971511;28;20211;-90
2023/03/08 05:10:54;;;;;;;3.43;3.13;;;;;;;18.60;40.33;95828.59;4970443;28;20212;-90
2023/03/08 05:13:20;;;;;;;4.00;3.40;;;;;;;18.41;41.02;95777.44;4966293;28;20254;-91
2023/03/08 05:15:47;;;;;;;4.03;3.70;;;;;;;19.21;40.57;95917.63;4994474;28;20255;-91
2023/03/08 05:18:13;;;;;;;3.90;3.60;;;;;;;17.83;40.94;95699.47;5010564;28;20196;-91
2023/03/08 05:20:40;;;;;;;4.17;3.77;;;;;;;18.41;40.89;95772.34;4995399;28;20188;-91
2023/03/08 05:23:07;;;;;;;3.87;3.57;;;;;;;17.93;40.60;95696.22;4994417;28;20223;-91
2023/03/08 05:25:33;;;;;;;4.03;3.63;;;;;;;17.84;40.25;95681.72;4993397;28;20218;-92
2023/03/08 05:28:00;;;;;;;3.60;3.30;;;;;;;17.73;40.51;95657.81;4971208;28;20218;-90
2023/03/08 05:30:26;;;;;;;4.03;3.63;;;;;;;17.60;40.59;95611.91;4993042;28;20192;-91
2023/03/08 05:32:53;;;;;;;4.10;3.70;;;;;;;17.88;40.52;95663.13;4970313;28;20204;-91
2023/03/08 05:35:20;;;;;;;3.77;3.47;;;;;;;18.80;40.36;95824.59;4995546;28;20226;-91
2023/03/08 05:37:46;;;;;;;4.30;3.90;;;;;;;18.80;40.93;95804.25;4986410;28;20191;-89
2023/03/08 05:40:13;;;;;;;4.50;4.10;;;;;;;17.79;40.08;95645.22;4987401;28;20212;-93
2023/03/08 05:42:39;;;;;;;5.13;4.10;;;;;;;17.81;40.48;95653.72;4977004;28;20251;-90
2023/03/08 05:45:07;;;;;;;4.07;3.73;;;;;;;18.80;40.55;95811.03;4992108;28;20247;-89
2023/03/08 05:47:33;;;;;;;6.17;3.87;;;;;;;18.61;39.75;95776.88;4972317;28;20207;-89
2023/03/08 05:50:00;;;;;;;5.27;4.20;;;;;;;19.08;40.30;95856.34;4980255;28;20204;-90
2023/03/08 05:52:28;;;;;;;4.30;3.90;;;;;;;17.81;40.54;95661.34;4979250;28;20238;-90
2023/03/08 05:54:55;;;;;;;3.97;3.57;;;;;;;19.14;40.41;95871.72;4961315;28;20227;-90
2023/03/08 05:57:21;;;;;;;4.20;3.80;;;;;;;18.71;40.30;95798.19;4978586;28;20794;-90
2023/03/08 05:59:48;;;;;;;4.57;4.17;;;;;;;17.79;40.38;95646.88;4977380;28;20286;-90
2023/03/08 06:02:14;;;;;;;4.33;3.93;;;;;;;18.73;40.32;95801.59;4976150;28;20224;-89
2023/03/08 06:04:41;;;;;;;4.30;3.90;;;;;;;18.67;40.08;95806.59;4978302;28;20215;-91
2023/03/08 06:07:08;;;;;;;4.57;4.17;;;;;;;19.13;40.63;95877.66;4960520;28;20223;-89
2023/03/08 06:09:34;;;;;;;4.90;4.50;;;;;;;17.87;40.36;95666.50;4978064;28;20200;-90
2023/03/08 06:12:01;;;;;;;5.20;4.20;;;;;;;18.42;40.30;95761.34;4960746;28;20247;-89
2023/03/08 06:14:27;;;;;;;5.00;4.50;;;;;;;18.44;40.25;95780.03;4972771;28;20224;-89
2023/03/08 06:16:54;;;;;;;4.17;3.77;;;;;;;19.26;40.05;95925.34;4973036;28;20208;-89
2023/03/08 06:19:21;;;;;;;4.80;4.13;;;;;;;19.14;40.03;95897.16;4979493;28;20219;-89
2023/03/08 06:21:47;;;;;;;4.70;4.13;;;;;;;18.69;40.29;95820.22;4986537;28;20247;-89
2023/03/08 06:24:14;;;;;;;4.80;4.30;;;;;;;17.75;40.07;95676.50;4976675;28;20213;-89
2023/03/08 06:26:40;;;;;;;4.40;4.00;;;;;;;18.40;40.36;95768.09;4972490;28;20208;-90
2023/03/08 06:29:07;;;;;;;4.57;4.17;;;;;;;19.13;40.27;95903.09;4977370;28;20200;-89
2023/03/08 06:31:33;;;;;;;4.83;4.33;;;;;;;18.96;40.08;95874.03;4986989;28;20204;-88
2023/03/08 06:34:00;;;;;;;5.07;4.27;;;;;;;18.91;40.04;95837.47;4977867;28;20272;-89
2023/03/08 06:36:27;;;;;;;4.80;4.00;;;;;;;19.06;40.12;95865.66;4976043;28;20210;-90
2023/03/08 06:38:53;;;;;;;4.80;4.30;;;;;;;19.12;40.17;95875.91;4982199;28;20223;-90
2023/03/08 06:41:20;;;;;;;4.30;3.90;;;;;;;18.64;40.31;95788.75;4979045;28;20235;-90
2023/03/08 06:43:47;;;;;;;5.07;4.57;;;;;;;18.47;40.12;95757.19;4976153;28;20219;-88
2023/03/08 06:46:15;;;;;;;4.43;4.03;;;;;;;18.05;40.20;95697.25;4973263;28;21038;-90
2023/03/08 06:48:42;;;;;;;5.73;3.93;;;;;;;18.36;40.03;95740.88;4978549;28;20215;-89
2023/03/08 06:51:09;;;;;;;5.00;4.50;;;;;;;17.50;40.16;95625.31;4985836;28;20218;-89
2023/03/08 06:53:37;;;;;;;4.77;4.23;;;;;;;19.01;40.17;95872.41;4977726;28;20266;-89
2023/03/08 06:56:05;;;;;;;3.93;3.63;;;;;;;19.16;40.35;95890.41;4999400;28;20271;-89
2023/03/08 06:58:33;;;;;;;4.40;4.00;;;;;;;19.28;40.30;95908.44;4976027;28;20227;-88
2023/03/08 07:00:59;;;;;;;5.00;4.13;;;;;;;18.52;40.40;95778.44;4992800;28;20240;-89
2023/03/08 07:03:26;;;;;;;4.37;3.97;;;;;;;18.33;40.42;95756.09;4989749;28;20252;-89
2023/03/08 07:06:00;;;;;;;5.03;3.73;;;;;;;19.35;40.37;95922.94;4986124;28;20191;-89
2023/03/08 07:08:26;;;;;;;4.93;4.43;;;;;;;18.15;39.99;95732.13;4973589;28;20208;-90
2023/03/08 07:10:53;;;;;;;4.03;3.63;;;;;;;17.86;40.17;95677.47;4979689;28;20188;-89
2023/03/08 07:13:22;;;;;;;5.10;4.10;;;;;;;18.80;40.40;95833.94;4977272;28;20223;-89
2023/03/08 07:15:49;;;;;;;4.73;4.23;;;;;;;18.92;40.29;95868.03;4982647;28;20196;-88
2023/03/08 07:18:16;;;;;;;4.60;4.13;;;;;;;19.01;40.43;95892.75;4951869;28;20291;-88
2023/03/08 07:20:43;;;;;;;4.70;4.10;;;;;;;18.72;40.35;95833.84;4949954;28;20242;-88
2023/03/08 07:23:09;;;;;;;5.70;5.10;;;;;;;19.04;40.15;95864.81;5007504;22;20226;-85
2023/03/08 07:25:39;;;;;;;14.37;9.23;;;;;;;18.79;37.89;95822.03;4971428;28;20297;-86
2023/03/08 07:28:06;;;;;;;12.47;9.90;;;;;;;19.35;36.70;95920.38;4979763;28;20202;-85
2023/03/08 07:30:32;;;;;;;10.40;9.10;;;;;;;18.73;36.76;95810.09;4975738;28;20836;-86
2023/03/08 07:32:59;;;;;;;10.37;8.77;;;;;;;19.31;37.82;95908.47;5001515;28;20317;-85
2023/03/08 07:35:25;;;;;;;11.20;8.90;;;;;;;19.14;37.46;95881.88;4985474;28;20202;-84
2023/03/08 07:37:52;;;;;;;12.93;8.30;;;;;;;18.96;38.31;95854.53;4999960;28;20214;-85
2023/03/08 07:40:18;;;;;;;8.70;7.77;;;;;;;19.26;38.19;95902.41;4972413;28;20218;-85
2023/03/08 07:42:45;;;;;;;8.60;7.70;;;;;;;19.21;38.80;95894.72;4984486;28;20258;-85
2023/03/08 07:45:11;;;;;;;9.00;7.43;;;;;;;18.97;38.99;95855.34;4998641;28;20211;-85
2023/03/08 07:47:39;;;;;;;9.00;7.20;;;;;;;18.85;38.97;95838.25;4998260;28;20712;-85
2023/03/08 07:50:06;;;;;;;8.90;7.53;;;;;;;18.91;39.41;95830.69;4973222;28;20221;-86
2023/03/08 07:52:33;;;;;;;9.33;7.53;;;;;;;18.80;39.95;95804.25;4989301;28;20253;-85
2023/03/08 07:55:01;;;;;;;7.90;7.00;;;;;;;19.19;39.52;95873.47;4968837;28;20301;-85
2023/03/08 07:57:28;;;;;;;7.03;6.33;;;;;;;19.19;39.78;95868.38;4982813;28;20209;-85
2023/03/08 07:59:54;;;;;;;8.97;6.43;;;;;;;18.42;39.60;95735.91;4989179;28;20361;-85
2023/03/08 08:02:21;;;;;;;8.17;6.67;;;;;;;18.93;39.89;95817.97;4988264;28;20245;-85
2023/03/08 08:04:47;;;;;;;9.33;6.77;;;;;;;18.30;39.89;95715.38;4973776;28;20206;-86
2023/03/08 08:07:14;;;;;;;6.73;5.93;;;;;;;17.39;40.27;95561.66;4967604;28;20242;-85
2023/03/08 08:09:41;;;;;;;8.77;6.27;;;;;;;18.93;40.19;95825.63;4987124;28;20216;-86
2023/03/08 08:12:08;;;;;;;7.07;6.13;;;;;;;19.18;40.34;95870.91;4987825;28;20264;-85
2023/03/08 08:14:34;;;;;;;7.43;6.63;;;;;;;19.17;40.29;95859.00;4985726;28;20662;-84
2023/03/08 08:17:01;;;;;;;7.23;6.43;;;;;;;19.16;40.28;95859.88;4989615;28;20290;-85
2023/03/08 08:19:28;;;;;;;7.10;6.30;;;;;;;18.82;40.31;95800.03;4987802;28;20245;-85
2023/03/08 08:21:55;;;;;;;7.00;5.70;;;;;;;16.84;40.61;95462.69;4966260;28;20666;-86
2023/03/08 08:24:21;;;;;;;7.60;6.37;;;;;;;18.51;40.36;95744.53;4970684;28;20228;-85
2023/03/08 08:26:48;;;;;;;5.87;5.27;;;;;;;17.91;40.02;95639.44;4968938;28;20313;-85
2023/03/08 08:29:14;;;;;;;7.30;5.50;;;;;;;18.79;40.71;95783.88;5006189;28;20553;-85
2023/03/08 08:31:41;;;;;;;7.00;5.20;;;;;;;19.15;40.17;95848.81;4972030;28;20301;-85
2023/03/08 08:34:07;;;;;;;6.30;5.70;;;;;;;17.19;40.12;95511.41;4985166;28;20240;-84
2023/03/08 08:36:34;;;;;;;6.10;5.50;;;;;;;19.16;40.06;95842.03;4965464;28;20203;-85
2023/03/08 08:39:01;;;;;;;5.87;5.20;;;;;;;18.46;40.60;95718.16;4986895;28;20381;-85
2023/03/08 08:41:28;;;;;;;6.43;5.43;;;;;;;19.16;40.52;95832.69;4959909;28;20202;-85
2023/03/08 08:43:57;;;;;;;6.60;5.93;;;;;;;18.58;40.31;95727.63;5001936;28;20234;-85
2023/03/08 08:46:24;;;;;;;6.37;5.77;;;;;;;17.52;40.33;95542.38;4961193;28;20582;-85
2023/03/08 08:48:51;;;;;;;6.07;5.50;;;;;;;18.44;40.55;95691.03;4960029;28;20866;-85
2023/03/08 08:51:17;;;;;;;6.10;5.47;;;;;;;18.77;40.74;95732.94;4976767;28;20198;-85
2023/03/08 08:53:44;;;;;;;6.20;5.60;;;;;;;19.17;40.67;95797.91;4991026;28;20230;-85
2023/03/08 08:56:20;;;;;;;6.60;5.50;;;;;;;19.16;40.71;95791.94;4989628;28;20220;-85
2023/03/08 08:58:55;;;;;;;6.03;5.30;;;;;;;19.16;40.77;95789.41;4991388;28;20563;-84
2023/03/08 09:01:24;;;;;;;6.13;5.30;;;;;;;17.95;40.72;95582.75;4991989;28;20257;-85
2023/03/08 09:03:50;;;;;;;5.70;5.20;;;;;;;19.14;40.82;95777.50;4992058;28;20238;-85
2023/03/08 09:06:18;;;;;;;5.93;5.33;;;;;;;18.91;40.64;95740.75;4991395;28;20237;-85
2023/03/08 09:08:49;;;;;;;5.87;5.27;;;;;;;17.80;40.87;95544.44;4991030;28;20220;-85
2023/03/08 09:11:16;;;;;;;6.57;5.30;;;;;;;18.90;41.02;95731.41;4990524;28;20206;-85
2023/03/08 09:13:42;;;;;;;6.03;5.43;;;;;;;18.85;40.65;95716.09;4961305;28;20230;-85
2023/03/08 09:16:19;;;;;;;5.80;5.13;;;;;;;17.83;40.92;95537.69;4953900;28;20295;-85
2023/03/08 09:18:45;;;;;;;5.90;5.30;;;;;;;18.53;40.89;95646.19;4973575;28;20214;-85
2023/03/08 09:21:13;;;;;;;5.70;4.97;;;;;;;19.12;40.81;95746.94;4991378;28;20304;-85
2023/03/08 09:23:39;;;;;;;5.37;4.70;;;;;;;19.12;41.05;95731.66;4992565;28;20317;-85
2023/03/08 09:26:06;;;;;;;5.43;4.93;;;;;;;19.12;40.95;95726.56;5008149;28;20653;-85
2023/03/08 09:28:33;;;;;;;5.17;4.67;;;;;;;19.13;41.10;95722.34;5005135;28;20214;-84
2023/03/08 09:31:01;;;;;;;5.37;4.87;;;;;;;18.78;41.13;95665.13;5001554;28;20264;-85
2023/03/08 09:33:28;;;;;;;6.73;4.80;;;;;;;19.12;41.10;95724.03;4973812;28;20280;-85
2023/03/08 09:35:58;;;;;;;5.50;4.90;;;;;;;18.15;41.28;95558.44;4970538;28;20205;-85
2023/03/08 09:38:24;;;;;;;5.60;4.57;;;;;;;18.54;41.13;95619.06;4970458;28;20666;-85
2023/03/08 09:41:16;;;;;;;4.90;4.40;;;;;;;19.12;41.17;95718.94;4972109;28;20219;-85
2023/03/08 09:44:10;;;;;;;5.20;4.43;;;;;;;19.12;41.13;95718.94;5003569;28;20604;-84
2023/03/08 09:46:45;;;;;;;6.10;4.70;;;;;;;18.99;41.22;95690.78;4990340;28;20221;-86
2023/03/08 09:49:13;;;;;;;5.07;4.60;;;;;;;18.24;41.23;95545.81;4974514;28;20210;-85
2023/03/08 09:51:41;;;;;;;5.07;4.57;;;;;;;17.90;41.33;95483.59;4983039;28;20581;-85
2023/03/08 09:54:15;;;;;;;6.10;4.97;;;;;;;18.41;41.47;95561.28;4959568;28;20230;-85
2023/03/08 09:56:47;;;;;;;4.83;4.37;;;;;;;17.91;41.53;95480.22;4973853;28;20230;-85
2023/03/08 09:59:18;;;;;;;5.63;5.03;;;;;;;18.81;41.53;95642.25;4970849;28;20213;-85
2023/03/08 10:02:16;;;;;;;5.87;4.60;;;;;;;19.12;41.23;95677.31;4973134;28;20313;-85
2023/03/08 10:05:29;;;;;;;7.33;5.07;;;;;;;19.12;41.23;95674.78;4974260;28;20214;-85
2023/03/08 10:08:11;;;;;;;5.23;4.73;;;;;;;18.68;41.33;95590.38;5008299;28;20703;-85
2023/03/08 10:10:50;;;;;;;4.93;4.47;;;;;;;19.11;41.22;95658.66;4971755;28;20770;-85
2023/03/08 10:13:36;;;;;;;6.47;4.87;;;;;;;18.70;41.34;95581.06;5005832;28;20312;-85
2023/03/08 10:16:19;;;;;;;6.57;4.90;;;;;;;19.11;41.32;95662.91;4974948;28;20218;-85
2023/03/08 10:18:50;;;;;;;4.80;4.20;;;;;;;19.11;41.42;95666.31;4983584;28;20224;-85
2023/03/08 10:21:18;;;;;;;4.93;4.43;;;;;;;19.11;41.58;95668.00;4988445;28;20219;-85
2023/03/08 10:23:46;;;;;;;4.60;4.20;;;;;;;18.68;41.40;95602.25;4971740;28;20235;-85
2023/03/08 10:26:13;;;;;;;5.17;4.63;;;;;;;18.38;41.56;95538.38;4974855;28;20654;-85
2023/03/08 10:28:40;;;;;;;4.67;4.20;;;;;;;18.24;41.68;95512.78;4972017;28;20276;-85
2023/03/08 10:31:22;;;;;;;4.80;4.30;;;;;;;18.27;41.61;95534.81;4982470;28;20599;-85
2023/03/08 10:33:51;;;;;;;4.83;4.40;;;;;;;19.10;41.70;95662.03;4955917;28;20258;-85
2023/03/08 10:36:20;;;;;;;4.40;4.00;;;;;;;18.57;41.67;95573.31;4955579;28;20218;-85
2023/03/08 10:39:00;;;;;;;5.80;4.67;;;;;;;19.10;41.32;95669.69;4970766;28;20206;-86
2023/03/08 10:41:31;;;;;;;4.93;4.37;;;;;;;17.82;42.25;95430.97;5005535;28;20224;-85
2023/03/08 10:43:58;;;;;;;5.20;4.50;;;;;;;18.76;41.78;95588.78;4953677;28;20230;-85
2023/03/08 10:46:27;;;;;;;5.47;4.97;;;;;;;18.27;41.84;95502.63;4977867;28;20293;-85
2023/03/08 10:48:53;;;;;;;4.53;4.13;;;;;;;17.84;41.97;95427.63;4981202;28;20229;-85
2023/03/08 10:51:22;;;;;;;4.60;4.20;;;;;;;18.78;41.81;95586.25;4986272;28;20206;-85
2023/03/08 10:54:01;;;;;;;5.07;4.37;;;;;;;18.06;41.79;95464.28;4953332;28;20227;-86
2023/03/08 10:56:38;;;;;;;5.00;4.50;;;;;;;19.09;41.71;95634.03;4989121;28;20210;-85
2023/03/08 10:59:06;;;;;;;4.87;4.20;;;;;;;19.08;41.80;95627.22;4963078;28;20290;-85
2023/03/08 11:01:33;;;;;;;5.07;4.27;;;;;;;18.72;41.90;95559.06;4986044;28;20222;-85
2023/03/08 11:04:05;;;;;;;4.50;4.10;;;;;;;18.72;42.13;95558.19;4973563;28;20227;-85
2023/03/08 11:06:34;;;;;;;4.93;4.33;;;;;;;19.08;41.73;95602.63;4988926;28;20573;-84
2023/03/08 11:09:03;;;;;;;5.30;4.80;;;;;;;18.16;42.10;95436.44;4996829;28;20206;-84
2023/03/08 11:11:39;;;;;;;4.97;4.43;;;;;;;19.08;41.94;95587.38;4970288;28;20203;-84
2023/03/08 11:14:08;;;;;;;4.43;4.03;;;;;;;18.77;41.97;95538.75;4987978;28;20221;-85
2023/03/08 11:16:56;;;;;;;4.53;4.13;;;;;;;19.08;42.08;95583.97;4953065;28;20212;-85
2023/03/08 11:19:46;;;;;;;4.93;4.00;;;;;;;18.66;41.86;95525.06;5004092;28;20202;-86
2023/03/08 11:22:32;;;;;;;5.40;4.17;;;;;;;19.08;42.11;95600.09;4972816;28;20218;-85
2023/03/08 11:25:07;;;;;;;4.73;4.20;;;;;;;19.09;42.04;95562.75;5003365;28;20226;-85
2023/03/08 11:27:51;;;;;;;4.80;4.27;;;;;;;18.22;42.09;95440.72;5000773;28;20757;-85
2023/03/08 11:30:39;;;;;;;4.77;4.33;;;;;;;19.09;41.88;95568.69;4957341;28;20584;-84
2023/03/08 11:33:23;;;;;;;5.20;4.57;;;;;;;18.88;42.14;95542.22;4997807;28;20713;-84
2023/03/08 11:35:55;;;;;;;5.17;4.27;;;;;;;19.09;42.19;95557.66;4986029;28;20220;-85
2023/03/08 11:38:29;;;;;;;5.87;4.73;;;;;;;18.46;41.80;95468.06;4968285;28;20207;-83
2023/03/08 11:40:59;;;;;;;5.57;4.43;;;;;;;19.08;42.17;95550.88;4967590;28;20689;-84